Weather observations for the past three days for
San Diego, North Island, Naval Air Station
Imperial (Metric)
Date Time (pdt) Wind (mph) Vis. (mi.) Weather Sky Cond. Temperature (ºF) Relative Humidity Wind Chill (°F) Heat Index (°F) Pressure Precipitation (in)
Air Dwpt 6 hour altimeter (in) sea level (mb) 1 hr 3 hr 6 hr
Max. Min.
04 22:52 Calm 10.00 Fair CLR 68 61 73 68 78% 29.93 1013.3
04 21:52 NW 3 10.00 A Few Clouds FEW200 69.1 61 76% 29.93 1013.3
04 20:52 NW 3 10.00 Fair CLR 68 61 78% 29.91 1012.8
04 19:52 NW 7 10.00 A Few Clouds FEW200 69.1 61 76% 29.89 1012.2
04 18:52 NW 8 10.00 A Few Clouds FEW200 FEW250 70 61 73% 29.89 1012.1
04 17:52 W 8 10.00 A Few Clouds FEW170 FEW240 72 61 68% 29.89 1012.0
04 16:52 W 8 10.00 A Few Clouds FEW170 FEW240 73 61 75.9 72 66% 29.89 1012.1
04 15:52 Vrbl 6 10.00 A Few Clouds FEW180 FEW230 73.9 60.1 62% 29.9 1012.5
04 14:52 W 8 10.00 A Few Clouds FEW220 73.9 59 60% 29.91 1012.8
04 13:52 W 12 10.00 A Few Clouds FEW200 73.9 59 60% 29.91 1012.9
04 12:52 W 10 10.00 A Few Clouds FEW200 75 59 58% 77 29.92 1013.1
04 11:52 W 10 10.00 A Few Clouds FEW200 75 59 58% 77 29.94 1013.7
04 10:52 W 7 10.00 A Few Clouds FEW026 72 59 73 64.9 64% 29.94 1013.9
04 08:52 SW 5 10.00 Partly Cloudy SCT026 70 57.9 66% 29.93 1013.4
04 07:52 SE 3 10.00 Partly Cloudy SCT026 69.1 57.9 68% 29.92 1013.1
04 06:52 Calm 10.00 Mostly Cloudy BKN025 66.9 57.9 73% 29.91 1012.7
04 05:52 Calm 10.00 Partly Cloudy SCT025 64.9 57.9 78% 29.9 1012.3
04 04:52 SE 3 10.00 Partly Cloudy SCT024 66 57.9 68 64.9 75% 29.9 1012.3
04 03:52 Calm 10.00 Mostly Cloudy BKN024 66.9 57.9 73% 29.9 1012.4
04 02:52 Calm 10.00 Mostly Cloudy BKN022 68 59 73% 29.9 1012.3
04 01:52 Calm 10.00 Mostly Cloudy BKN020 68 59 73% 29.89 1012.3
04 00:52 Calm 10.00 Mostly Cloudy BKN020 68 60.1 76% 29.91 1012.7
03 23:52 W 5 10.00 A Few Clouds FEW019 66.9 59 76% 29.91 1012.6
03 22:52 NW 5 10.00 A Few Clouds FEW019 68 60.1 73 68 76% 29.9 1012.6
03 21:52 NW 6 10.00 A Few Clouds FEW019 68 60.1 76% 29.9 1012.5
03 20:52 NW 7 10.00 A Few Clouds FEW019 69.1 60.1 73% 29.9 1012.4
03 19:52 Vrbl 7 10.00 A Few Clouds FEW019 69.1 60.1 73% 29.89 1012.1
03 18:52 NW 9 10.00 Partly Cloudy SCT020 70 61 73% 29.89 1012.1
03 17:52 W 10 10.00 Partly Cloudy SCT019 71.1 61 71% 29.89 1012.3
03 16:52 W 13 10.00 Partly Cloudy SCT020 SCT060 72 61 75.9 72 68% 29.89 1012.3
03 15:52 W 10 10.00 A Few Clouds FEW020 FEW060 73.9 62.1 67% 29.91 1012.6
03 14:52 W 12 G 18 10.00 A Few Clouds FEW020 FEW060 73.9 60.1 62% 29.92 1013.0
03 13:52 W 13 10.00 A Few Clouds FEW020 FEW080 73.9 62.1 67% 29.93 1013.3
03 12:52 W 12 10.00 A Few Clouds FEW100 75 61 62% 77 29.93 1013.5
03 11:52 W 12 10.00 Fair CLR 73.9 62.1 67% 29.95 1014.1
03 10:52 SW 8 10.00 Fair CLR 73 62.1 73 63 69% 29.96 1014.5
03 09:52 S 6 10.00 A Few Clouds FEW020 72 61 68% 29.96 1014.5
03 08:52 S 5 9.00 A Few Clouds FEW020 69.1 61 76% 29.97 1014.7
03 07:52 E 3 10.00 A Few Clouds FEW020 66.9 59 76% 29.97 1014.7
03 06:52 E 5 8.00 Partly Cloudy SCT020 63 57.9 84% 29.95 1014.2
03 05:52 E 5 8.00 A Few Clouds FEW020 63 57.9 84% 29.94 1013.9
03 04:52 SE 5 9.00 Mostly Cloudy SCT020 BKN200 64.9 60.1 70 64 84% 29.94 1013.8
03 03:52 Calm 10.00 Mostly Cloudy SCT020 BKN200 64 59 84% 29.95 1014.0
03 02:52 Calm 10.00 Mostly Cloudy SCT020 BKN200 66 61 84% 29.95 1014.1
03 01:52 Calm 10.00 Mostly Cloudy SCT020 BKN200 68 61 78% 29.96 1014.5
03 00:52 Calm 10.00 Mostly Cloudy SCT019 BKN200 68 61 78% 29.97 1015.0
02 23:52 NW 3 10.00 Partly Cloudy SCT019 69.1 61 76% 29.97 1015.0
02 22:52 NW 5 10.00 Partly Cloudy SCT019 69.1 61 73.9 69.1 76% 29.98 1015.1
02 21:52 NW 5 10.00 Partly Cloudy SCT021 69.1 61 76% 29.98 1015.2
02 20:52 NW 8 10.00 Mostly Cloudy BKN020 70 61 73% 29.97 1014.9
02 19:52 W 9 10.00 Partly Cloudy SCT019 70 62.1 76% 29.96 1014.4
02 18:52 NW 9 10.00 A Few Clouds FEW022 71.1 62.1 73% 29.96 1014.3
02 17:52 NW 10 10.00 A Few Clouds FEW020 72 60.1 66% 29.95 1014.1
02 16:52 W 9 10.00 A Few Clouds FEW020 73.9 60.1 75 72 62% 29.95 1014.2
02 15:52 NW 13 10.00 Fair CLR 73.9 60.1 62% 29.96 1014.6
02 14:52 W 9 10.00 A Few Clouds FEW050 73.9 60.1 62% 29.98 1015.1
02 13:52 W 12 10.00 Fair CLR 75 60.1 60% 77 29.98 1015.3
02 12:52 W 10 10.00 Fair CLR 73.9 60.1 62% 29.99 1015.6
02 11:52 W 9 10.00 Fair CLR 73 61 66% 30.01 1016.0
02 10:52 W 7 10.00 Fair CLR 73 61 73.9 64.9 66% 30.02 1016.4
02 09:52 W 6 10.00 A Few Clouds FEW019 73 61 66% 30.01 1016.1
02 08:52 NW 5 10.00 Partly Cloudy SCT019 72 61 68% 30.01 1016.1
02 07:52 Vrbl 3 10.00 Mostly Cloudy BKN018 69.1 61 76% 30.01 1016.0
02 06:52 W 5 10.00 Mostly Cloudy BKN019 69.1 62.1 78% 30 1015.8
02 05:52 Calm 10.00 Mostly Cloudy BKN019 66.9 61 81% 29.98 1015.1
02 04:52 Calm 10.00 Mostly Cloudy BKN019 68 62.1 69.1 66 81% 29.98 1015.1
02 03:52 Calm 10.00 Mostly Cloudy BKN020 66.9 62.1 84% 29.98 1015.1
02 02:52 NW 6 10.00 Mostly Cloudy BKN020 69.1 63 81% 29.99 1015.6
02 01:52 Calm 10.00 Mostly Cloudy BKN018 68 63 84% 30 1015.8
02 00:52 NW 5 10.00 A Few Clouds FEW015 69.1 63 81% 30 1015.9
Date Time (pdt) Wind (mph) Vis. (mi.) Weather Sky Cond. Air Dwpt Max. Min. Relative Humidity Wind Chill (°F) Heat Index (°F) altimeter (in) sea level (mb) 1 hr 3 hr 6 hr
6 hour
Temperature (ºF) Pressure Precipitation (in)